sensor_id;sensor_type;location;lat;lon;timestamp;temperature;humidity
19809;DHT22;48538;32.784;-96.802;2023-04-02T00:09:15;22.40;60.90
19809;DHT22;48538;32.784;-96.802;2023-04-02T00:11:47;22.40;63.00
19809;DHT22;48538;32.784;-96.802;2023-04-02T00:14:20;22.40;61.40
19809;DHT22;48538;32.784;-96.802;2023-04-02T00:16:48;22.40;60.60
19809;DHT22;48538;32.784;-96.802;2023-04-02T00:19:40;22.30;61.70
19809;DHT22;48538;32.784;-96.802;2023-04-02T00:22:06;22.20;62.40
19809;DHT22;48538;32.784;-96.802;2023-04-02T00:24:34;22.10;62.90
19809;DHT22;48538;32.784;-96.802;2023-04-02T00:27:04;22.10;62.40
19809;DHT22;48538;32.784;-96.802;2023-04-02T00:29:34;22.10;62.60
19809;DHT22;48538;32.784;-96.802;2023-04-02T00:32:01;22.10;62.60
19809;DHT22;48538;32.784;-96.802;2023-04-02T00:34:36;22.10;62.70
19809;DHT22;48538;32.784;-96.802;2023-04-02T00:37:03;22.00;62.90
19809;DHT22;48538;32.784;-96.802;2023-04-02T00:39:33;21.90;65.40
19809;DHT22;48538;32.784;-96.802;2023-04-02T00:42:02;22.00;66.30
19809;DHT22;48538;32.784;-96.802;2023-04-02T00:44:37;21.80;65.80
19809;DHT22;48538;32.784;-96.802;2023-04-02T00:47:21;21.70;68.70
19809;DHT22;48538;32.784;-96.802;2023-04-02T00:49:52;21.60;65.50
19809;DHT22;48538;32.784;-96.802;2023-04-02T00:52:23;21.50;65.50
19809;DHT22;48538;32.784;-96.802;2023-04-02T00:54:53;21.50;65.20
19809;DHT22;48538;32.784;-96.802;2023-04-02T00:57:24;21.50;65.20
19809;DHT22;48538;32.784;-96.802;2023-04-02T01:02:31;21.30;65.30
19809;DHT22;48538;32.784;-96.802;2023-04-02T01:16:16;21.10;69.30
19809;DHT22;48538;32.784;-96.802;2023-04-02T01:19:00;21.10;70.90
19809;DHT22;48538;32.784;-96.802;2023-04-02T01:24:13;21.00;69.40
19809;DHT22;48538;32.784;-96.802;2023-04-02T01:26:55;21.00;67.60
19809;DHT22;48538;32.784;-96.802;2023-04-02T01:29:29;21.00;67.50
19809;DHT22;48538;32.784;-96.802;2023-04-02T01:32:08;20.90;67.90
19809;DHT22;48538;32.784;-96.802;2023-04-02T01:34:36;20.90;67.90
19809;DHT22;48538;32.784;-96.802;2023-04-02T01:40:42;20.90;69.10
19809;DHT22;48538;32.784;-96.802;2023-04-02T01:43:32;20.70;69.30
19809;DHT22;48538;32.784;-96.802;2023-04-02T01:46:26;20.80;72.00
19809;DHT22;48538;32.784;-96.802;2023-04-02T01:48:55;20.70;70.40
19809;DHT22;48538;32.784;-96.802;2023-04-02T01:51:33;20.70;70.40
19809;DHT22;48538;32.784;-96.802;2023-04-02T01:54:03;20.70;69.40
19809;DHT22;48538;32.784;-96.802;2023-04-02T01:56:31;20.70;69.30
19809;DHT22;48538;32.784;-96.802;2023-04-02T01:58:57;20.70;69.00
19809;DHT22;48538;32.784;-96.802;2023-04-02T02:01:31;20.70;69.60
19809;DHT22;48538;32.784;-96.802;2023-04-02T02:04:00;20.60;69.90
19809;DHT22;48538;32.784;-96.802;2023-04-02T02:06:27;20.60;69.00
19809;DHT22;48538;32.784;-96.802;2023-04-02T02:09:05;20.70;68.90
19809;DHT22;48538;32.784;-96.802;2023-04-02T02:11:34;20.80;70.00
19809;DHT22;48538;32.784;-96.802;2023-04-02T02:14:21;20.70;70.00
19809;DHT22;48538;32.784;-96.802;2023-04-02T02:16:48;20.70;70.20
19809;DHT22;48538;32.784;-96.802;2023-04-02T02:19:35;20.60;74.10
19809;DHT22;48538;32.784;-96.802;2023-04-02T02:24:40;20.50;72.40
19809;DHT22;48538;32.784;-96.802;2023-04-02T02:30:05;20.50;72.20
19809;DHT22;48538;32.784;-96.802;2023-04-02T02:32:32;20.50;72.00
19809;DHT22;48538;32.784;-96.802;2023-04-02T02:35:25;20.50;72.70
19809;DHT22;48538;32.784;-96.802;2023-04-02T02:40:44;20.60;72.60
19809;DHT22;48538;32.784;-96.802;2023-04-02T02:43:13;20.50;73.30
19809;DHT22;48538;32.784;-96.802;2023-04-02T02:45:42;20.50;73.40
19809;DHT22;48538;32.784;-96.802;2023-04-02T02:48:18;20.50;74.30
19809;DHT22;48538;32.784;-96.802;2023-04-02T02:50:45;20.50;75.20
19809;DHT22;48538;32.784;-96.802;2023-04-02T02:53:22;20.50;74.00
19809;DHT22;48538;32.784;-96.802;2023-04-02T02:55:54;20.40;73.90
19809;DHT22;48538;32.784;-96.802;2023-04-02T02:58:34;20.40;74.00
19809;DHT22;48538;32.784;-96.802;2023-04-02T03:01:00;20.40;75.20
19809;DHT22;48538;32.784;-96.802;2023-04-02T03:03:29;20.20;75.40
19809;DHT22;48538;32.784;-96.802;2023-04-02T03:06:02;20.20;74.40
19809;DHT22;48538;32.784;-96.802;2023-04-02T03:09:00;20.30;74.40
19809;DHT22;48538;32.784;-96.802;2023-04-02T03:11:48;20.20;73.70
19809;DHT22;48538;32.784;-96.802;2023-04-02T03:17:01;20.10;77.10
19809;DHT22;48538;32.784;-96.802;2023-04-02T03:22:13;20.10;79.90
19809;DHT22;48538;32.784;-96.802;2023-04-02T03:25:42;20.10;80.00
19809;DHT22;48538;32.784;-96.802;2023-04-02T03:27:46;20.10;79.90
19809;DHT22;48538;32.784;-96.802;2023-04-02T03:30:43;20.10;78.10
19809;DHT22;48538;32.784;-96.802;2023-04-02T03:33:28;20.00;79.00
19809;DHT22;48538;32.784;-96.802;2023-04-02T03:47:02;20.00;79.40
19809;DHT22;48538;32.784;-96.802;2023-04-02T03:49:47;20.00;78.30
19809;DHT22;48538;32.784;-96.802;2023-04-02T03:52:23;20.00;78.40
19809;DHT22;48538;32.784;-96.802;2023-04-02T03:54:51;20.10;77.60
19809;DHT22;48538;32.784;-96.802;2023-04-02T04:00:34;20.00;78.50
19809;DHT22;48538;32.784;-96.802;2023-04-02T04:03:20;20.00;79.80
19809;DHT22;48538;32.784;-96.802;2023-04-02T04:06:00;20.10;77.20
19809;DHT22;48538;32.784;-96.802;2023-04-02T04:08:43;20.10;78.20
19809;DHT22;48538;32.784;-96.802;2023-04-02T04:11:17;20.20;79.10
19809;DHT22;48538;32.784;-96.802;2023-04-02T04:17:11;20.30;76.90
19809;DHT22;48538;32.784;-96.802;2023-04-02T04:20:21;20.20;76.40
19809;DHT22;48538;32.784;-96.802;2023-04-02T04:22:49;20.20;78.70
19809;DHT22;48538;32.784;-96.802;2023-04-02T04:25:28;20.30;76.70
19809;DHT22;48538;32.784;-96.802;2023-04-02T04:30:52;20.10;79.10
19809;DHT22;48538;32.784;-96.802;2023-04-02T04:33:30;20.10;80.50
19809;DHT22;48538;32.784;-96.802;2023-04-02T04:36:05;20.10;78.70
19809;DHT22;48538;32.784;-96.802;2023-04-02T04:38:47;20.10;78.50
19809;DHT22;48538;32.784;-96.802;2023-04-02T04:41:36;20.20;77.20
19809;DHT22;48538;32.784;-96.802;2023-04-02T04:44:37;20.10;79.40
19809;DHT22;48538;32.784;-96.802;2023-04-02T04:47:10;20.20;78.40
19809;DHT22;48538;32.784;-96.802;2023-04-02T04:50:13;20.20;78.50
19809;DHT22;48538;32.784;-96.802;2023-04-02T04:52:42;20.20;79.50
19809;DHT22;48538;32.784;-96.802;2023-04-02T04:55:25;20.20;80.00
19809;DHT22;48538;32.784;-96.802;2023-04-02T04:57:55;20.10;79.10
19809;DHT22;48538;32.784;-96.802;2023-04-02T05:00:43;20.10;78.20
19809;DHT22;48538;32.784;-96.802;2023-04-02T05:05:45;20.10;81.30
19809;DHT22;48538;32.784;-96.802;2023-04-02T05:08:19;19.90;80.30
19809;DHT22;48538;32.784;-96.802;2023-04-02T05:11:14;20.00;79.80
19809;DHT22;48538;32.784;-96.802;2023-04-02T05:13:53;19.90;82.40
19809;DHT22;48538;32.784;-96.802;2023-04-02T05:19:10;20.10;80.30
19809;DHT22;48538;32.784;-96.802;2023-04-02T05:24:24;19.80;77.40
19809;DHT22;48538;32.784;-96.802;2023-04-02T05:26:57;19.80;77.40
19809;DHT22;48538;32.784;-96.802;2023-04-02T05:29:34;19.80;78.10
19809;DHT22;48538;32.784;-96.802;2023-04-02T05:32:12;19.80;77.60
19809;DHT22;48538;32.784;-96.802;2023-04-02T05:34:41;19.80;77.00
19809;DHT22;48538;32.784;-96.802;2023-04-02T05:37:20;19.70;77.80
19809;DHT22;48538;32.784;-96.802;2023-04-02T05:39:53;19.80;77.10
19809;DHT22;48538;32.784;-96.802;2023-04-02T05:42:26;19.80;77.50
19809;DHT22;48538;32.784;-96.802;2023-04-02T05:45:33;19.80;76.60
19809;DHT22;48538;32.784;-96.802;2023-04-02T05:48:04;19.90;78.30
19809;DHT22;48538;32.784;-96.802;2023-04-02T05:50:39;19.80;79.20
19809;DHT22;48538;32.784;-96.802;2023-04-02T05:53:31;19.80;79.30
19809;DHT22;48538;32.784;-96.802;2023-04-02T05:56:22;19.80;80.20
19809;DHT22;48538;32.784;-96.802;2023-04-02T05:59:16;19.80;79.10
19809;DHT22;48538;32.784;-96.802;2023-04-02T06:04:56;19.80;83.30
19809;DHT22;48538;32.784;-96.802;2023-04-02T06:07:46;19.90;82.70
19809;DHT22;48538;32.784;-96.802;2023-04-02T06:10:28;19.90;81.20
19809;DHT22;48538;32.784;-96.802;2023-04-02T06:13:00;19.80;79.60
19809;DHT22;48538;32.784;-96.802;2023-04-02T06:15:32;19.70;80.20
19809;DHT22;48538;32.784;-96.802;2023-04-02T06:18:23;19.60;81.20
19809;DHT22;48538;32.784;-96.802;2023-04-02T06:20:50;19.40;80.30
19809;DHT22;48538;32.784;-96.802;2023-04-02T06:28:47;19.40;78.40
19809;DHT22;48538;32.784;-96.802;2023-04-02T06:34:21;19.40;79.60
19809;DHT22;48538;32.784;-96.802;2023-04-02T06:36:50;19.30;79.80
19809;DHT22;48538;32.784;-96.802;2023-04-02T06:39:19;19.30;79.60
19809;DHT22;48538;32.784;-96.802;2023-04-02T06:42:18;19.30;80.30
19809;DHT22;48538;32.784;-96.802;2023-04-02T06:44:45;19.20;78.10
19809;DHT22;48538;32.784;-96.802;2023-04-02T06:49:59;19.30;77.80
19809;DHT22;48538;32.784;-96.802;2023-04-02T06:52:55;19.20;78.20
19809;DHT22;48538;32.784;-96.802;2023-04-02T06:55:37;19.20;79.40
19809;DHT22;48538;32.784;-96.802;2023-04-02T06:58:07;19.20;77.80
19809;DHT22;48538;32.784;-96.802;2023-04-02T07:03:06;19.20;79.10
19809;DHT22;48538;32.784;-96.802;2023-04-02T07:05:33;19.20;79.10
19809;DHT22;48538;32.784;-96.802;2023-04-02T07:07:59;19.20;78.50
19809;DHT22;48538;32.784;-96.802;2023-04-02T07:10:26;19.20;78.00
19809;DHT22;48538;32.784;-96.802;2023-04-02T07:12:52;19.20;79.70
19809;DHT22;48538;32.784;-96.802;2023-04-02T07:15:18;19.10;79.70
19809;DHT22;48538;32.784;-96.802;2023-04-02T07:17:45;19.20;81.40
19809;DHT22;48538;32.784;-96.802;2023-04-02T07:20:27;19.20;82.10
19809;DHT22;48538;32.784;-96.802;2023-04-02T07:22:53;19.20;79.60
19809;DHT22;48538;32.784;-96.802;2023-04-02T07:25:20;19.30;78.90
19809;DHT22;48538;32.784;-96.802;2023-04-02T07:27:47;19.30;79.20
19809;DHT22;48538;32.784;-96.802;2023-04-02T07:30:13;19.10;79.20
19809;DHT22;48538;32.784;-96.802;2023-04-02T07:32:40;19.10;78.50
19809;DHT22;48538;32.784;-96.802;2023-04-02T07:35:07;19.00;78.80
19809;DHT22;48538;32.784;-96.802;2023-04-02T07:37:42;19.10;79.70
19809;DHT22;48538;32.784;-96.802;2023-04-02T07:40:19;19.10;78.50
19809;DHT22;48538;32.784;-96.802;2023-04-02T07:42:47;19.10;79.20
19809;DHT22;48538;32.784;-96.802;2023-04-02T07:45:14;19.20;79.80
19809;DHT22;48538;32.784;-96.802;2023-04-02T07:47:41;19.10;80.70
19809;DHT22;48538;32.784;-96.802;2023-04-02T07:50:08;19.10;81.00
19809;DHT22;48538;32.784;-96.802;2023-04-02T07:52:39;19.10;80.80
19809;DHT22;48538;32.784;-96.802;2023-04-02T07:55:08;19.00;83.20
19809;DHT22;48538;32.784;-96.802;2023-04-02T07:57:37;19.10;81.60
19809;DHT22;48538;32.784;-96.802;2023-04-02T08:00:09;19.00;80.20
19809;DHT22;48538;32.784;-96.802;2023-04-02T08:02:38;18.90;81.00
19809;DHT22;48538;32.784;-96.802;2023-04-02T08:05:05;18.90;81.50
19809;DHT22;48538;32.784;-96.802;2023-04-02T08:07:32;18.90;81.80
19809;DHT22;48538;32.784;-96.802;2023-04-02T08:09:58;18.90;80.30
19809;DHT22;48538;32.784;-96.802;2023-04-02T08:12:25;18.80;80.70
19809;DHT22;48538;32.784;-96.802;2023-04-02T08:14:51;18.90;81.70
19809;DHT22;48538;32.784;-96.802;2023-04-02T08:17:17;18.80;81.20
19809;DHT22;48538;32.784;-96.802;2023-04-02T08:19:44;18.80;81.10
19809;DHT22;48538;32.784;-96.802;2023-04-02T08:22:10;18.80;81.70
19809;DHT22;48538;32.784;-96.802;2023-04-02T08:24:36;18.70;82.40
19809;DHT22;48538;32.784;-96.802;2023-04-02T08:27:06;18.70;82.90
19809;DHT22;48538;32.784;-96.802;2023-04-02T08:29:32;18.80;83.60
19809;DHT22;48538;32.784;-96.802;2023-04-02T08:31:59;18.80;81.20
19809;DHT22;48538;32.784;-96.802;2023-04-02T08:34:26;18.70;81.90
19809;DHT22;48538;32.784;-96.802;2023-04-02T08:36:56;18.70;81.50
19809;DHT22;48538;32.784;-96.802;2023-04-02T08:39:23;18.60;81.50
19809;DHT22;48538;32.784;-96.802;2023-04-02T08:42:06;18.70;81.90
19809;DHT22;48538;32.784;-96.802;2023-04-02T08:47:10;18.50;81.20
19809;DHT22;48538;32.784;-96.802;2023-04-02T08:49:49;18.60;81.40
19809;DHT22;48538;32.784;-96.802;2023-04-02T08:52:21;18.70;79.60
19809;DHT22;48538;32.784;-96.802;2023-04-02T08:54:48;18.80;79.30
19809;DHT22;48538;32.784;-96.802;2023-04-02T08:59:44;18.70;79.80
19809;DHT22;48538;32.784;-96.802;2023-04-02T09:05:04;18.70;79.40
19809;DHT22;48538;32.784;-96.802;2023-04-02T09:07:32;18.80;78.70
19809;DHT22;48538;32.784;-96.802;2023-04-02T09:09:59;18.70;79.20
19809;DHT22;48538;32.784;-96.802;2023-04-02T09:12:30;18.60;78.70
19809;DHT22;48538;32.784;-96.802;2023-04-02T09:17:45;18.70;78.10
19809;DHT22;48538;32.784;-96.802;2023-04-02T09:20:18;18.60;79.90
19809;DHT22;48538;32.784;-96.802;2023-04-02T09:22:48;18.70;79.40
19809;DHT22;48538;32.784;-96.802;2023-04-02T09:25:23;18.60;78.80
19809;DHT22;48538;32.784;-96.802;2023-04-02T09:27:56;18.60;79.60
19809;DHT22;48538;32.784;-96.802;2023-04-02T09:35:23;18.60;81.70
19809;DHT22;48538;32.784;-96.802;2023-04-02T09:41:05;18.50;82.10
19809;DHT22;48538;32.784;-96.802;2023-04-02T09:43:34;18.50;82.70
19809;DHT22;48538;32.784;-96.802;2023-04-02T09:46:05;18.50;83.20
19809;DHT22;48538;32.784;-96.802;2023-04-02T09:48:55;18.60;83.40
19809;DHT22;48538;32.784;-96.802;2023-04-02T09:51:27;18.60;83.80
19809;DHT22;48538;32.784;-96.802;2023-04-02T09:56:30;18.50;84.40
19809;DHT22;48538;32.784;-96.802;2023-04-02T10:02:01;18.40;84.60
19809;DHT22;48538;32.784;-96.802;2023-04-02T10:04:35;18.40;84.90
19809;DHT22;48538;32.784;-96.802;2023-04-02T10:07:05;18.40;83.90
19809;DHT22;48538;32.784;-96.802;2023-04-02T10:09:36;18.40;83.50
19809;DHT22;48538;32.784;-96.802;2023-04-02T10:12:10;18.40;83.10
19809;DHT22;48538;32.784;-96.802;2023-04-02T10:14:44;18.40;84.30
19809;DHT22;48538;32.784;-96.802;2023-04-02T10:19:53;18.40;83.90
19809;DHT22;48538;32.784;-96.802;2023-04-02T10:22:21;18.40;84.00
19809;DHT22;48538;32.784;-96.802;2023-04-02T10:24:48;18.40;82.90
19809;DHT22;48538;32.784;-96.802;2023-04-02T10:27:46;18.30;83.50
19809;DHT22;48538;32.784;-96.802;2023-04-02T10:33:04;18.40;83.40
19809;DHT22;48538;32.784;-96.802;2023-04-02T10:41:08;18.50;83.70
19809;DHT22;48538;32.784;-96.802;2023-04-02T10:44:04;18.50;84.20
19809;DHT22;48538;32.784;-96.802;2023-04-02T10:47:04;18.40;85.00
19809;DHT22;48538;32.784;-96.802;2023-04-02T10:52:32;18.40;85.30
19809;DHT22;48538;32.784;-96.802;2023-04-02T10:55:15;18.50;87.00
19809;DHT22;48538;32.784;-96.802;2023-04-02T10:57:43;18.40;87.60
19809;DHT22;48538;32.784;-96.802;2023-04-02T11:00:14;18.40;88.10
19809;DHT22;48538;32.784;-96.802;2023-04-02T11:05:46;18.40;87.20
19809;DHT22;48538;32.784;-96.802;2023-04-02T11:08:19;18.30;88.70
19809;DHT22;48538;32.784;-96.802;2023-04-02T11:10:51;18.30;88.50
19809;DHT22;48538;32.784;-96.802;2023-04-02T11:15:50;18.20;86.80
19809;DHT22;48538;32.784;-96.802;2023-04-02T11:18:30;18.20;88.40
19809;DHT22;48538;32.784;-96.802;2023-04-02T11:21:04;18.20;88.70
19809;DHT22;48538;32.784;-96.802;2023-04-02T11:23:38;18.10;89.40
19809;DHT22;48538;32.784;-96.802;2023-04-02T11:26:31;18.10;89.40
19809;DHT22;48538;32.784;-96.802;2023-04-02T11:31:31;18.00;90.40
19809;DHT22;48538;32.784;-96.802;2023-04-02T11:33:58;17.90;90.10
19809;DHT22;48538;32.784;-96.802;2023-04-02T11:39:48;17.80;89.00
19809;DHT22;48538;32.784;-96.802;2023-04-02T11:44:45;17.70;90.50
19809;DHT22;48538;32.784;-96.802;2023-04-02T11:52:25;17.60;90.50
19809;DHT22;48538;32.784;-96.802;2023-04-02T11:55:02;17.50;90.40
19809;DHT22;48538;32.784;-96.802;2023-04-02T11:57:54;17.50;90.60
19809;DHT22;48538;32.784;-96.802;2023-04-02T12:03:44;17.50;90.60
19809;DHT22;48538;32.784;-96.802;2023-04-02T12:11:17;17.60;92.30
19809;DHT22;48538;32.784;-96.802;2023-04-02T12:13:55;17.60;91.60
19809;DHT22;48538;32.784;-96.802;2023-04-02T12:16:24;17.60;91.90
19809;DHT22;48538;32.784;-96.802;2023-04-02T12:18:56;17.50;92.70
19809;DHT22;48538;32.784;-96.802;2023-04-02T12:21:25;17.50;93.40
19809;DHT22;48538;32.784;-96.802;2023-04-02T12:23:57;17.50;93.60
19809;DHT22;48538;32.784;-96.802;2023-04-02T12:26:31;17.50;93.60
19809;DHT22;48538;32.784;-96.802;2023-04-02T12:29:22;17.50;92.90
19809;DHT22;48538;32.784;-96.802;2023-04-02T12:31:50;17.50;94.40
19809;DHT22;48538;32.784;-96.802;2023-04-02T12:34:21;17.50;94.50
19809;DHT22;48538;32.784;-96.802;2023-04-02T12:36:52;17.50;93.90
19809;DHT22;48538;32.784;-96.802;2023-04-02T12:39:19;17.50;94.50
19809;DHT22;48538;32.784;-96.802;2023-04-02T12:41:46;17.60;94.90
19809;DHT22;48538;32.784;-96.802;2023-04-02T12:44:18;17.60;94.20
19809;DHT22;48538;32.784;-96.802;2023-04-02T12:46:47;17.70;95.10
19809;DHT22;48538;32.784;-96.802;2023-04-02T12:51:43;17.60;95.10
19809;DHT22;48538;32.784;-96.802;2023-04-02T12:54:14;17.70;95.10
19809;DHT22;48538;32.784;-96.802;2023-04-02T12:56:42;17.70;95.30
19809;DHT22;48538;32.784;-96.802;2023-04-02T13:02:00;17.70;95.20
19809;DHT22;48538;32.784;-96.802;2023-04-02T13:04:27;17.70;95.30
19809;DHT22;48538;32.784;-96.802;2023-04-02T13:06:54;17.70;95.10
19809;DHT22;48538;32.784;-96.802;2023-04-02T13:09:41;17.80;96.30
19809;DHT22;48538;32.784;-96.802;2023-04-02T13:12:41;17.90;96.40
19809;DHT22;48538;32.784;-96.802;2023-04-02T13:15:21;17.90;95.30
19809;DHT22;48538;32.784;-96.802;2023-04-02T13:20:37;18.00;96.80
19809;DHT22;48538;32.784;-96.802;2023-04-02T13:25:51;18.30;96.70
19809;DHT22;48538;32.784;-96.802;2023-04-02T13:28:18;18.20;96.70
19809;DHT22;48538;32.784;-96.802;2023-04-02T13:30:44;18.30;97.00
19809;DHT22;48538;32.784;-96.802;2023-04-02T13:33:11;18.30;97.00
19809;DHT22;48538;32.784;-96.802;2023-04-02T13:35:38;18.30;96.90
19809;DHT22;48538;32.784;-96.802;2023-04-02T13:38:04;18.30;97.20
19809;DHT22;48538;32.784;-96.802;2023-04-02T13:40:32;18.30;96.60
19809;DHT22;48538;32.784;-96.802;2023-04-02T13:42:59;18.40;97.10
19809;DHT22;48538;32.784;-96.802;2023-04-02T13:45:38;18.50;97.30
19809;DHT22;48538;32.784;-96.802;2023-04-02T13:48:13;18.60;97.10
19809;DHT22;48538;32.784;-96.802;2023-04-02T13:50:39;18.70;96.20
19809;DHT22;48538;32.784;-96.802;2023-04-02T13:53:07;18.80;95.80
19809;DHT22;48538;32.784;-96.802;2023-04-02T13:55:40;18.90;96.10
19809;DHT22;48538;32.784;-96.802;2023-04-02T13:58:10;18.90;95.60
19809;DHT22;48538;32.784;-96.802;2023-04-02T14:00:36;19.10;95.50
19809;DHT22;48538;32.784;-96.802;2023-04-02T14:03:14;19.00;94.30
19809;DHT22;48538;32.784;-96.802;2023-04-02T14:09:04;19.10;95.60
19809;DHT22;48538;32.784;-96.802;2023-04-02T14:11:57;19.10;94.80
19809;DHT22;48538;32.784;-96.802;2023-04-02T14:20:16;19.40;95.40
19809;DHT22;48538;32.784;-96.802;2023-04-02T14:22:53;19.50;95.20
19809;DHT22;48538;32.784;-96.802;2023-04-02T14:31:24;19.70;95.50
19809;DHT22;48538;32.784;-96.802;2023-04-02T14:36:54;19.90;95.80
19809;DHT22;48538;32.784;-96.802;2023-04-02T14:41:57;19.90;96.30
19809;DHT22;48538;32.784;-96.802;2023-04-02T14:44:28;19.80;95.60
19809;DHT22;48538;32.784;-96.802;2023-04-02T14:47:09;19.90;96.10
19809;DHT22;48538;32.784;-96.802;2023-04-02T14:49:41;19.70;96.40
19809;DHT22;48538;32.784;-96.802;2023-04-02T14:52:22;19.80;96.50
19809;DHT22;48538;32.784;-96.802;2023-04-02T14:55:02;19.90;96.50
19809;DHT22;48538;32.784;-96.802;2023-04-02T14:57:36;19.90;96.60
19809;DHT22;48538;32.784;-96.802;2023-04-02T15:00:24;19.80;96.80
19809;DHT22;48538;32.784;-96.802;2023-04-02T15:03:22;19.90;97.00
19809;DHT22;48538;32.784;-96.802;2023-04-02T15:05:57;20.00;96.90
19809;DHT22;48538;32.784;-96.802;2023-04-02T15:08:30;20.10;96.70
19809;DHT22;48538;32.784;-96.802;2023-04-02T15:11:32;20.10;96.70
19809;DHT22;48538;32.784;-96.802;2023-04-02T15:14:18;20.10;96.80
19809;DHT22;48538;32.784;-96.802;2023-04-02T15:16:45;20.10;97.00
19809;DHT22;48538;32.784;-96.802;2023-04-02T15:19:14;20.30;97.00
19809;DHT22;48538;32.784;-96.802;2023-04-02T15:32:26;21.00;96.80
19809;DHT22;48538;32.784;-96.802;2023-04-02T15:35:14;21.00;97.00
19809;DHT22;48538;32.784;-96.802;2023-04-02T15:38:04;21.00;97.20
19809;DHT22;48538;32.784;-96.802;2023-04-02T15:43:43;21.00;97.20
19809;DHT22;48538;32.784;-96.802;2023-04-02T15:49:30;21.10;97.30
19809;DHT22;48538;32.784;-96.802;2023-04-02T15:52:33;21.10;97.30
19809;DHT22;48538;32.784;-96.802;2023-04-02T16:00:29;21.30;97.90
19809;DHT22;48538;32.784;-96.802;2023-04-02T16:11:26;21.50;98.80
19809;DHT22;48538;32.784;-96.802;2023-04-02T16:14:24;21.60;99.00
19809;DHT22;48538;32.784;-96.802;2023-04-02T16:16:53;21.60;99.30
19809;DHT22;48538;32.784;-96.802;2023-04-02T16:19:32;21.70;99.40
19809;DHT22;48538;32.784;-96.802;2023-04-02T16:22:23;21.80;99.70
19809;DHT22;48538;32.784;-96.802;2023-04-02T16:25:09;21.90;99.90
19809;DHT22;48538;32.784;-96.802;2023-04-02T16:28:30;22.00;99.90
19809;DHT22;48538;32.784;-96.802;2023-04-02T16:33:55;22.30;99.90
19809;DHT22;48538;32.784;-96.802;2023-04-02T16:36:29;22.50;99.90
19809;DHT22;48538;32.784;-96.802;2023-04-02T16:39:27;22.70;99.90
19809;DHT22;48538;32.784;-96.802;2023-04-02T16:42:05;22.90;99.90
19809;DHT22;48538;32.784;-96.802;2023-04-02T16:58:20;24.00;99.90
19809;DHT22;48538;32.784;-96.802;2023-04-02T17:00:51;24.20;99.90
19809;DHT22;48538;32.784;-96.802;2023-04-02T17:06:07;24.30;99.90
19809;DHT22;48538;32.784;-96.802;2023-04-02T17:09:09;24.30;99.90
19809;DHT22;48538;32.784;-96.802;2023-04-02T17:11:40;24.30;99.90
19809;DHT22;48538;32.784;-96.802;2023-04-02T17:16:53;24.40;99.90
19809;DHT22;48538;32.784;-96.802;2023-04-02T17:19:23;24.50;99.90
19809;DHT22;48538;32.784;-96.802;2023-04-02T17:21:54;24.40;99.90
19809;DHT22;48538;32.784;-96.802;2023-04-02T17:24:32;24.50;99.90
19809;DHT22;48538;32.784;-96.802;2023-04-02T17:27:16;24.40;99.90
19809;DHT22;48538;32.784;-96.802;2023-04-02T17:29:46;24.50;99.90
19809;DHT22;48538;32.784;-96.802;2023-04-02T17:32:29;24.50;99.90
19809;DHT22;48538;32.784;-96.802;2023-04-02T17:38:00;24.50;99.90
19809;DHT22;48538;32.784;-96.802;2023-04-02T17:45:55;24.40;99.90
19809;DHT22;48538;32.784;-96.802;2023-04-02T18:13:32;25.60;99.90
19809;DHT22;48538;32.784;-96.802;2023-04-02T18:19:37;25.70;99.90
19809;DHT22;48538;32.784;-96.802;2023-04-02T18:24:43;25.70;99.90
19809;DHT22;48538;32.784;-96.802;2023-04-02T18:32:45;25.80;99.90
19809;DHT22;48538;32.784;-96.802;2023-04-02T18:35:26;25.90;99.90
19809;DHT22;48538;32.784;-96.802;2023-04-02T18:38:18;26.00;99.90
19809;DHT22;48538;32.784;-96.802;2023-04-02T18:49:24;26.30;99.90
19809;DHT22;48538;32.784;-96.802;2023-04-02T18:51:56;26.30;99.90
19809;DHT22;48538;32.784;-96.802;2023-04-02T18:54:47;26.50;99.90
19809;DHT22;48538;32.784;-96.802;2023-04-02T18:57:23;26.50;99.90
19809;DHT22;48538;32.784;-96.802;2023-04-02T19:00:30;26.60;99.90
19809;DHT22;48538;32.784;-96.802;2023-04-02T19:06:14;26.60;99.90
19809;DHT22;48538;32.784;-96.802;2023-04-02T19:09:03;26.40;99.90
19809;DHT22;48538;32.784;-96.802;2023-04-02T19:11:35;26.30;99.90
19809;DHT22;48538;32.784;-96.802;2023-04-02T19:14:06;26.10;99.90
19809;DHT22;48538;32.784;-96.802;2023-04-02T19:19:39;25.70;99.90
19809;DHT22;48538;32.784;-96.802;2023-04-02T19:30:41;25.60;99.90
19809;DHT22;48538;32.784;-96.802;2023-04-02T19:38:40;25.30;99.90
19809;DHT22;48538;32.784;-96.802;2023-04-02T19:44:07;25.00;99.90
19809;DHT22;48538;32.784;-96.802;2023-04-02T19:46:35;25.00;99.90
19809;DHT22;48538;32.784;-96.802;2023-04-02T19:49:14;25.00;99.90
19809;DHT22;48538;32.784;-96.802;2023-04-02T19:51:50;25.10;99.90
19809;DHT22;48538;32.784;-96.802;2023-04-02T19:54:18;25.10;99.90
19809;DHT22;48538;32.784;-96.802;2023-04-02T19:56:44;25.10;99.90
19809;DHT22;48538;32.784;-96.802;2023-04-02T19:59:11;25.00;99.90
19809;DHT22;48538;32.784;-96.802;2023-04-02T20:01:38;25.10;99.90
19809;DHT22;48538;32.784;-96.802;2023-04-02T20:04:04;25.20;99.90
19809;DHT22;48538;32.784;-96.802;2023-04-02T20:06:31;25.30;99.90
19809;DHT22;48538;32.784;-96.802;2023-04-02T20:08:58;25.20;99.90
19809;DHT22;48538;32.784;-96.802;2023-04-02T20:11:25;25.20;99.90
19809;DHT22;48538;32.784;-96.802;2023-04-02T20:13:53;25.30;99.90
19809;DHT22;48538;32.784;-96.802;2023-04-02T20:16:20;25.40;99.90
19809;DHT22;48538;32.784;-96.802;2023-04-02T20:18:48;25.40;99.90
19809;DHT22;48538;32.784;-96.802;2023-04-02T20:21:14;25.40;99.90
19809;DHT22;48538;32.784;-96.802;2023-04-02T20:23:41;25.40;99.90
19809;DHT22;48538;32.784;-96.802;2023-04-02T20:26:07;25.50;99.90
19809;DHT22;48538;32.784;-96.802;2023-04-02T20:28:34;25.50;99.90
19809;DHT22;48538;32.784;-96.802;2023-04-02T20:31:12;25.40;99.90
19809;DHT22;48538;32.784;-96.802;2023-04-02T20:33:39;25.40;99.90
19809;DHT22;48538;32.784;-96.802;2023-04-02T20:36:11;25.30;99.90
19809;DHT22;48538;32.784;-96.802;2023-04-02T20:38:43;25.10;99.90
19809;DHT22;48538;32.784;-96.802;2023-04-02T20:41:10;25.00;99.90
19809;DHT22;48538;32.784;-96.802;2023-04-02T20:43:37;24.80;99.90
19809;DHT22;48538;32.784;-96.802;2023-04-02T20:46:05;24.50;99.90
19809;DHT22;48538;32.784;-96.802;2023-04-02T20:48:35;24.30;99.90
19809;DHT22;48538;32.784;-96.802;2023-04-02T20:51:04;24.10;99.90
19809;DHT22;48538;32.784;-96.802;2023-04-02T20:53:33;23.90;99.90
19809;DHT22;48538;32.784;-96.802;2023-04-02T20:56:10;23.80;99.90
19809;DHT22;48538;32.784;-96.802;2023-04-02T20:58:38;23.70;99.90
19809;DHT22;48538;32.784;-96.802;2023-04-02T21:01:20;23.70;99.90